createdAt,value
2019-02-16T00:03:09.819Z,6.90
2019-02-16T00:05:37.596Z,6.90
2019-02-16T00:08:07.964Z,6.80
2019-02-16T00:10:36.341Z,6.80
2019-02-16T00:13:05.935Z,6.80
2019-02-16T00:15:34.745Z,6.80
2019-02-16T00:18:06.096Z,6.70
2019-02-16T00:20:34.595Z,6.70
2019-02-16T00:23:02.942Z,6.70
2019-02-16T00:25:31.652Z,6.70
2019-02-16T00:28:00.611Z,6.70
2019-02-16T00:30:29.316Z,6.70
2019-02-16T00:32:56.990Z,6.70
2019-02-16T00:35:25.464Z,6.60
2019-02-16T00:37:53.854Z,6.60
2019-02-16T00:40:21.951Z,6.50
2019-02-16T00:42:50.017Z,6.30
2019-02-16T00:45:18.350Z,6.40
2019-02-16T00:50:14.699Z,6.30
2019-02-16T00:52:42.807Z,6.10
2019-02-16T00:57:43.361Z,7.00
2019-02-16T01:10:07.085Z,6.20
2019-02-16T01:12:35.964Z,6.20
2019-02-16T01:15:05.104Z,6.20
2019-02-16T01:17:33.754Z,6.30
2019-02-16T01:20:01.818Z,6.30
2019-02-16T01:22:29.892Z,6.30
2019-02-16T01:24:58.436Z,6.60
2019-02-16T01:42:15.941Z,6.10
2019-02-16T01:47:12.465Z,5.90
2019-02-16T01:52:10.035Z,5.70
2019-02-16T01:54:38.715Z,6.20
2019-02-16T01:59:36.008Z,6.60
2019-02-16T02:02:04.076Z,6.30
2019-02-16T02:04:31.655Z,6.10
2019-02-16T02:14:25.972Z,5.30
2019-02-16T02:16:54.054Z,5.90
2019-02-16T02:31:43.136Z,5.70
2019-02-16T02:36:39.850Z,5.80
2019-02-16T02:41:36.260Z,5.40
2019-02-16T02:51:28.083Z,6.10
2019-02-16T02:56:24.723Z,5.60
2019-02-16T02:58:53.007Z,5.80
2019-02-16T03:01:21.882Z,5.50
2019-02-16T03:08:45.185Z,5.80
2019-02-16T03:11:14.081Z,5.50
2019-02-16T03:21:06.616Z,5.00
2019-02-16T03:28:55.785Z,4.90
2019-02-16T03:31:51.918Z,5.30
2019-02-16T03:34:25.284Z,5.10
2019-02-16T03:39:42.709Z,5.20
2019-02-16T03:42:11.436Z,4.80
2019-02-16T03:44:39.820Z,5.10
2019-02-16T03:49:36.697Z,5.70
2019-02-16T03:52:13.253Z,5.30
2019-02-16T03:57:03.477Z,5.10
2019-02-16T03:59:32.050Z,4.70
2019-02-16T04:02:00.434Z,4.60
2019-02-16T04:06:57.575Z,5.30
2019-02-16T04:14:24.056Z,5.00
2019-02-16T04:16:52.325Z,4.90
2019-02-16T04:21:47.744Z,4.90
2019-02-16T04:34:12.967Z,5.20
2019-02-16T04:36:41.727Z,4.50
2019-02-16T04:39:11.056Z,4.30
2019-02-16T04:54:00.108Z,4.90
2019-02-16T04:58:56.547Z,5.30
2019-02-16T05:06:20.352Z,4.80
2019-02-16T05:13:44.123Z,4.70
2019-02-16T05:26:04.511Z,4.50
2019-02-16T05:31:01.500Z,4.80
2019-02-16T05:38:31.710Z,4.60
2019-02-16T05:53:21.381Z,4.90
2019-02-16T06:03:14.408Z,4.90
2019-02-16T06:08:10.757Z,4.40
2019-02-16T06:10:38.925Z,4.10
2019-02-16T06:13:07.008Z,4.40
2019-02-16T06:15:35.627Z,3.90
2019-02-16T06:18:04.186Z,3.70
2019-02-16T06:20:32.268Z,4.10
2019-02-16T06:25:32.017Z,4.10
2019-02-16T06:35:42.166Z,4.70
2019-02-16T06:43:05.596Z,3.90
2019-02-16T06:45:35.067Z,3.70
2019-02-16T06:53:03.291Z,3.60
2019-02-16T06:55:43.331Z,3.70
2019-02-16T06:58:11.710Z,3.70
2019-02-16T07:00:39.381Z,3.70
2019-02-16T07:03:08.167Z,3.70
2019-02-16T07:05:38.523Z,3.80
2019-02-16T07:08:08.629Z,3.90
2019-02-16T07:10:37.179Z,3.80
2019-02-16T07:13:05.367Z,3.90
2019-02-16T07:15:35.141Z,4.10
2019-02-16T07:18:14.852Z,4.30
2019-02-16T07:20:45.190Z,4.40
2019-02-16T07:23:21.979Z,4.50
2019-02-16T07:25:43.848Z,4.40
2019-02-16T07:28:11.912Z,4.50
2019-02-16T07:33:08.389Z,4.40
2019-02-16T07:35:36.864Z,4.30
2019-02-16T07:38:06.109Z,4.40
2019-02-16T07:40:37.622Z,4.40
2019-02-16T07:43:08.417Z,4.30
2019-02-16T07:45:45.097Z,4.50
2019-02-16T07:51:20.718Z,4.70
2019-02-16T07:54:06.306Z,4.80
2019-02-16T07:56:50.858Z,4.80
2019-02-16T08:02:13.412Z,5.00
2019-02-16T08:05:09.857Z,5.00
2019-02-16T08:07:57.065Z,5.20
2019-02-16T08:10:44.052Z,5.30
2019-02-16T08:13:39.313Z,5.40
2019-02-16T08:16:13.920Z,5.50
2019-02-16T08:19:07.385Z,5.60
2019-02-16T08:22:09.466Z,5.70
2019-02-16T08:24:57.641Z,5.70
2019-02-16T08:27:53.181Z,6.10
2019-02-16T08:30:55.996Z,6.80
2019-02-16T08:39:23.399Z,7.60
2019-02-16T08:42:14.353Z,7.90
2019-02-16T08:45:08.499Z,8.20
2019-02-16T08:50:48.955Z,8.80
2019-02-16T08:53:39.622Z,9.20
2019-02-16T08:56:36.305Z,9.60
2019-02-16T09:02:03.519Z,10.60
2019-02-16T09:04:51.210Z,10.90
2019-02-16T09:07:40.805Z,11.50
2019-02-16T09:10:28.623Z,11.90
2019-02-16T09:13:12.680Z,12.10
2019-02-16T09:15:50.494Z,12.40
2019-02-16T09:18:44.030Z,12.70
2019-02-16T09:21:19.182Z,12.90
2019-02-16T09:24:06.812Z,13.30
2019-02-16T09:26:52.858Z,13.40
2019-02-16T09:35:47.689Z,13.70
2019-02-16T09:38:34.111Z,14.20
2019-02-16T09:41:33.680Z,14.50
2019-02-16T09:44:32.046Z,14.70
2019-02-16T09:47:20.794Z,15.00
2019-02-16T09:50:07.612Z,15.60
2019-02-16T09:53:09.696Z,16.10
2019-02-16T09:55:57.318Z,16.00
2019-02-16T09:58:49.868Z,16.30
2019-02-16T10:01:43.240Z,16.90
2019-02-16T10:04:15.445Z,17.40
2019-02-16T10:07:01.844Z,17.70
2019-02-16T10:09:56.098Z,17.90
2019-02-16T10:12:34.610Z,18.60
2019-02-16T10:15:30.953Z,18.90
2019-02-16T10:18:37.323Z,19.50
2019-02-16T10:24:26.332Z,19.90
2019-02-16T10:29:58.739Z,21.60
2019-02-16T10:32:45.111Z,22.00
2019-02-16T10:35:31.002Z,22.00
2019-02-16T10:38:17.187Z,22.20
2019-02-16T10:43:42.744Z,22.60
2019-02-16T10:49:13.686Z,24.00
2019-02-16T10:52:06.629Z,24.10
2019-02-16T10:54:52.951Z,24.30
2019-02-16T11:00:20.092Z,26.50
2019-02-16T11:03:00.275Z,26.50
2019-02-16T11:05:37.264Z,29.60
2019-02-16T11:08:31.850Z,30.40
2019-02-16T11:11:28.889Z,30.60
2019-02-16T11:14:14.002Z,30.50
2019-02-16T11:16:53.718Z,31.20
2019-02-16T11:19:39.530Z,31.60
2019-02-16T11:22:22.573Z,31.60
2019-02-16T11:25:16.421Z,32.20
2019-02-16T11:27:56.086Z,32.10
2019-02-16T11:30:34.183Z,32.20
2019-02-16T11:33:10.785Z,32.40
2019-02-16T11:36:00.409Z,32.40
2019-02-16T11:38:44.450Z,32.00
2019-02-16T11:41:19.256Z,31.20
2019-02-16T11:46:47.225Z,31.30
2019-02-16T11:49:30.298Z,31.50
2019-02-16T11:52:32.763Z,31.40
2019-02-16T11:55:35.546Z,32.10
2019-02-16T12:01:06.271Z,33.00
2019-02-16T12:04:08.731Z,33.50
2019-02-16T12:06:55.382Z,32.00
2019-02-16T12:09:44.870Z,32.70
2019-02-16T12:12:20.136Z,33.00
2019-02-16T12:15:07.759Z,33.10
2019-02-16T12:17:53.650Z,32.90
2019-02-16T12:20:39.927Z,32.60
2019-02-16T12:23:26.784Z,33.10
2019-02-16T12:28:44.539Z,32.40
2019-02-16T12:31:50.083Z,32.90
2019-02-16T12:34:37.918Z,32.70
2019-02-16T12:37:12.613Z,32.50
2019-02-16T12:39:53.254Z,31.10
2019-02-16T12:42:39.649Z,31.20
2019-02-16T12:45:37.033Z,31.50
2019-02-16T12:48:22.082Z,30.30
2019-02-16T12:51:06.251Z,30.20
2019-02-16T12:53:54.083Z,30.70
2019-02-16T12:56:53.823Z,29.60
2019-02-16T12:59:29.160Z,28.80
2019-02-16T13:02:17.381Z,28.70
2019-02-16T13:05:07.589Z,27.20
2019-02-16T13:07:56.035Z,26.30
2019-02-16T13:10:47.886Z,26.70
2019-02-16T13:13:28.542Z,26.70
2019-02-16T13:16:22.707Z,27.50
2019-02-16T13:19:09.013Z,25.70
2019-02-16T13:22:08.636Z,25.60
2019-02-16T13:25:10.997Z,25.70
2019-02-16T13:27:59.446Z,25.80
2019-02-16T13:30:47.798Z,24.10
2019-02-16T13:33:45.780Z,23.90
2019-02-16T13:36:21.209Z,23.60
2019-02-16T13:39:08.467Z,23.10
2019-02-16T13:41:42.005Z,21.60
2019-02-16T13:44:35.247Z,21.70
2019-02-16T13:47:11.267Z,21.80
2019-02-16T13:49:52.148Z,21.80
2019-02-16T13:52:26.569Z,21.90
2019-02-16T13:55:14.678Z,21.10
2019-02-16T13:57:56.597Z,21.10
2019-02-16T14:00:34.104Z,21.10
2019-02-16T14:03:15.996Z,21.10
2019-02-16T14:05:55.856Z,20.70
2019-02-16T14:08:46.528Z,20.60
2019-02-16T14:11:45.946Z,20.80
2019-02-16T14:14:25.297Z,20.40
2019-02-16T14:17:11.468Z,20.40
2019-02-16T14:19:39.778Z,19.60
2019-02-16T14:24:45.183Z,19.00
2019-02-16T14:27:14.169Z,18.80
2019-02-16T14:29:42.438Z,18.90
2019-02-16T14:32:10.902Z,18.90
2019-02-16T14:39:47.493Z,19.50
2019-02-16T14:42:15.957Z,20.30
2019-02-16T14:44:45.091Z,21.00
2019-02-16T14:47:13.537Z,21.50
2019-02-16T14:49:41.567Z,22.00
2019-02-16T14:54:39.412Z,22.20
2019-02-16T14:59:36.235Z,21.10
2019-02-16T15:02:04.865Z,21.00
2019-02-16T15:07:00.987Z,19.70
2019-02-16T15:09:28.965Z,20.30
2019-02-16T15:11:56.997Z,20.50
2019-02-16T15:14:26.041Z,20.70
2019-02-16T15:16:55.539Z,20.80
2019-02-16T15:19:25.680Z,21.60
2019-02-16T15:26:50.695Z,18.30
2019-02-16T15:31:46.309Z,17.20
2019-02-16T15:41:38.480Z,14.80
2019-02-16T15:44:06.680Z,15.20
2019-02-16T15:49:03.752Z,14.60
2019-02-16T15:54:01.487Z,14.30
2019-02-16T15:56:28.782Z,14.20
2019-02-16T15:58:57.084Z,14.00
2019-02-16T16:01:25.416Z,14.00
2019-02-16T16:03:53.968Z,13.90
2019-02-16T16:06:22.327Z,13.70
2019-02-16T16:08:59.093Z,13.60
2019-02-16T16:11:58.113Z,13.60
2019-02-16T16:14:43.560Z,13.60
2019-02-16T16:17:30.298Z,13.40
2019-02-16T16:20:20.241Z,13.40
2019-02-16T16:23:10.848Z,13.30
2019-02-16T16:25:45.501Z,13.20
2019-02-16T16:28:31.047Z,13.10
2019-02-16T16:31:17.792Z,13.10
2019-02-16T16:34:14.603Z,12.90
2019-02-16T16:37:01.147Z,12.40
2019-02-16T16:53:41.046Z,12.40
2019-02-16T16:56:28.670Z,12.30
2019-02-16T16:59:20.241Z,12.30
2019-02-16T17:02:19.948Z,12.10
2019-02-16T17:05:04.080Z,11.90
2019-02-16T17:10:42.415Z,11.80
2019-02-16T17:13:36.376Z,11.70
2019-02-16T17:16:24.044Z,11.50
2019-02-16T17:19:14.139Z,11.30
2019-02-16T17:22:01.635Z,11.30
2019-02-16T17:24:48.360Z,11.20
2019-02-16T17:27:42.005Z,11.20
2019-02-16T17:30:26.894Z,11.10
2019-02-16T17:33:20.159Z,10.90
2019-02-16T17:35:56.714Z,10.70
2019-02-16T17:38:44.392Z,10.70
2019-02-16T17:41:43.579Z,10.50
2019-02-16T17:44:34.762Z,10.40
2019-02-16T17:47:21.177Z,10.40
2019-02-16T17:50:24.008Z,10.30
2019-02-16T17:53:11.682Z,10.10
2019-02-16T17:55:55.384Z,10.10
2019-02-16T17:58:42.148Z,10.10
2019-02-16T18:01:28.967Z,10.00
2019-02-16T18:04:16.709Z,10.00
2019-02-16T18:07:08.547Z,9.90
2019-02-16T18:09:47.060Z,9.80
2019-02-16T18:12:25.688Z,9.90
2019-02-16T18:15:28.035Z,9.80
2019-02-16T18:18:14.678Z,9.70
2019-02-16T18:21:11.798Z,9.70
2019-02-16T18:23:47.668Z,9.60
2019-02-16T18:26:37.167Z,9.70
2019-02-16T18:29:14.517Z,9.60
2019-02-16T18:32:02.972Z,9.60
2019-02-16T18:34:48.180Z,9.50
2019-02-16T18:37:31.263Z,9.40
2019-02-16T18:40:24.436Z,9.40
2019-02-16T18:46:03.890Z,9.40
2019-02-16T18:48:52.969Z,9.40
2019-02-16T18:51:59.615Z,9.30
2019-02-16T18:54:56.401Z,9.30
2019-02-16T18:57:41.243Z,9.30
2019-02-16T19:00:21.074Z,9.30
2019-02-16T19:03:10.271Z,9.20
2019-02-16T19:06:03.047Z,9.00
2019-02-16T19:08:56.999Z,9.00
2019-02-16T19:11:41.320Z,9.10
2019-02-16T19:14:44.032Z,9.00
2019-02-16T19:17:20.536Z,9.20
2019-02-16T19:20:23.381Z,9.00
2019-02-16T19:22:58.124Z,8.90
2019-02-16T19:25:45.014Z,8.90
2019-02-16T19:28:31.094Z,8.80
2019-02-16T19:34:05.976Z,8.80
2019-02-16T19:36:53.810Z,8.80
2019-02-16T19:39:41.049Z,8.70
2019-02-16T19:42:20.244Z,8.70
2019-02-16T19:45:03.812Z,8.70
2019-02-16T19:47:38.851Z,8.60
2019-02-16T19:53:09.901Z,8.50
2019-02-16T19:55:57.440Z,8.50
2019-02-16T19:58:40.022Z,8.50
2019-02-16T20:04:18.028Z,8.30
2019-02-16T20:07:05.914Z,8.30
2019-02-16T20:09:46.411Z,8.30
2019-02-16T20:12:32.790Z,8.30
2019-02-16T20:15:11.809Z,8.30
2019-02-16T20:17:56.156Z,8.30
2019-02-16T20:20:49.695Z,8.20
2019-02-16T20:23:39.995Z,8.20
2019-02-16T20:26:43.442Z,8.30
2019-02-16T20:29:33.702Z,8.20
2019-02-16T20:32:28.340Z,8.20
2019-02-16T20:35:06.046Z,8.20
2019-02-16T20:37:58.124Z,8.10
2019-02-16T20:40:40.430Z,8.20
2019-02-16T20:43:17.548Z,8.20
2019-02-16T20:46:01.266Z,8.20
2019-02-16T20:51:43.233Z,8.20
2019-02-16T20:54:43.006Z,8.10
2019-02-16T21:03:05.811Z,8.00
2019-02-16T21:08:44.646Z,8.00
2019-02-16T21:11:51.002Z,8.00
2019-02-16T21:14:37.072Z,8.00
2019-02-16T21:17:25.497Z,7.90
2019-02-16T21:20:22.096Z,7.90
2019-02-16T21:23:18.769Z,7.90
2019-02-16T21:26:00.820Z,7.90
2019-02-16T21:29:06.146Z,7.80
2019-02-16T21:31:52.590Z,7.80
2019-02-16T21:34:40.095Z,7.80
2019-02-16T21:37:34.091Z,7.80
2019-02-16T21:40:11.234Z,7.70
2019-02-16T21:42:46.323Z,7.80
2019-02-16T21:45:40.819Z,7.60
2019-02-16T21:48:26.554Z,7.60
2019-02-16T21:51:09.385Z,7.60
2019-02-16T21:53:48.757Z,9.20
2019-02-16T21:56:43.400Z,7.60
2019-02-16T21:59:30.156Z,7.50
2019-02-16T22:02:21.151Z,7.60
2019-02-16T22:05:07.863Z,7.60
2019-02-16T22:07:58.068Z,7.50
2019-02-16T22:10:51.675Z,7.40
2019-02-16T22:13:20.103Z,7.40
2019-02-16T22:15:50.253Z,7.50
2019-02-16T22:18:18.990Z,7.50
2019-02-16T22:20:47.111Z,7.50
2019-02-16T22:23:15.569Z,7.30
2019-02-16T22:25:43.056Z,7.30
2019-02-16T22:28:18.427Z,7.30
2019-02-16T22:30:42.098Z,7.40
2019-02-16T22:33:10.690Z,7.40
2019-02-16T22:35:38.815Z,7.30
2019-02-16T22:38:06.963Z,7.20
2019-02-16T22:40:37.922Z,7.20
2019-02-16T22:43:06.689Z,7.20
2019-02-16T22:45:35.136Z,7.20
2019-02-16T22:48:02.520Z,7.20
2019-02-16T22:50:31.002Z,7.20
2019-02-16T22:52:58.994Z,7.20
2019-02-16T22:55:27.741Z,7.20
2019-02-16T22:57:56.999Z,7.10
2019-02-16T23:00:37.069Z,7.10
2019-02-16T23:03:06.698Z,7.10
2019-02-16T23:05:34.816Z,7.10
2019-02-16T23:08:04.416Z,7.00
2019-02-16T23:10:32.717Z,7.00
2019-02-16T23:13:01.210Z,7.00
2019-02-16T23:15:29.667Z,7.00
2019-02-16T23:17:57.371Z,6.90
2019-02-16T23:20:25.192Z,6.90
2019-02-16T23:22:53.325Z,6.80
2019-02-16T23:27:50.135Z,6.90
2019-02-16T23:32:49.234Z,6.80
2019-02-16T23:37:47.052Z,6.80
2019-02-16T23:40:14.999Z,6.80
2019-02-16T23:42:42.653Z,6.70
2019-02-16T23:45:11.347Z,6.60
2019-02-16T23:52:34.917Z,6.60
2019-02-16T23:55:03.113Z,6.40
2019-02-16T23:57:32.032Z,6.40
